Time;durP1;ratioP1;P1;durP2;ratioP2;P2;SDS_P1;SDS_P2;PMS_P1;PMS_P2;Temp;Humidity;BMP_temperature;BMP_pressure;BME280_temperature;BME280_humidity;BME280_pressure;Samples;Min_cycle;Max_cycle;Signal;HPM_P1;HPM_P2
2020/12/10 00:00:09;;;;;;;24.13;17.02;;;;;;;8.26;77.50;100235.66;4970252;28;20042;-61
2020/12/10 00:02:35;;;;;;;24.63;17.90;;;;;;;8.23;77.58;100223.59;4974286;28;20062;-61
2020/12/10 00:05:04;;;;;;;26.05;17.48;;;;;;;8.23;77.51;100221.00;4977711;28;20050;-63
2020/12/10 00:07:30;;;;;;;26.42;16.77;;;;;;;8.22;77.46;100219.28;4970829;28;20050;-60
2020/12/10 00:09:56;;;;;;;24.10;17.08;;;;;;;8.22;77.30;100223.69;4967354;28;20050;-61
2020/12/10 00:12:39;;;;;;;26.48;17.90;;;;;;;8.22;77.26;100216.69;4968601;28;20062;-62
2020/12/10 00:15:08;;;;;;;24.48;17.02;;;;;;;8.22;77.38;100216.69;4971584;28;20106;-62
2020/12/10 00:17:35;;;;;;;25.70;18.25;;;;;;;8.22;77.22;100208.84;4977442;28;20055;-61
2020/12/10 00:20:04;;;;;;;25.60;18.08;;;;;;;8.20;77.29;100208.06;4976443;28;20053;-59
2020/12/10 00:22:33;;;;;;;24.65;17.08;;;;;;;8.20;77.10;100215.09;4977170;28;20458;-59
2020/12/10 00:24:59;;;;;;;23.25;16.55;;;;;;;8.16;76.89;100203.94;4977079;28;20043;-60
2020/12/10 00:27:26;;;;;;;24.90;16.73;;;;;;;8.14;76.85;100211.06;4977318;28;20047;-60
2020/12/10 00:29:56;;;;;;;25.80;16.20;;;;;;;8.11;76.75;100214.69;4977194;28;20047;-60
2020/12/10 00:32:26;;;;;;;23.17;16.63;;;;;;;8.10;76.67;100214.72;4976994;28;20550;-59
2020/12/10 00:34:56;;;;;;;26.13;17.10;;;;;;;8.08;76.70;100219.22;4976811;28;20559;-59
2020/12/10 00:37:32;;;;;;;23.10;16.75;;;;;;;8.06;76.67;100223.69;4976854;28;20487;-60
2020/12/10 00:39:58;;;;;;;23.45;16.30;;;;;;;8.04;76.58;100221.16;4977249;28;20054;-62
2020/12/10 00:42:26;;;;;;;23.63;16.40;;;;;;;8.05;76.50;100214.16;4977481;28;20411;-62
2020/12/10 00:44:59;;;;;;;25.80;16.33;;;;;;;8.02;76.50;100212.53;4976811;28;20130;-62
2020/12/10 00:47:28;;;;;;;23.67;15.90;;;;;;;8.00;76.62;100201.34;4977727;28;20078;-60
2020/12/10 00:49:55;;;;;;;21.88;15.20;;;;;;;7.98;76.40;100193.56;4976571;28;20062;-61
2020/12/10 00:52:25;;;;;;;20.70;14.75;;;;;;;7.97;76.47;100198.88;4976577;28;20054;-61
2020/12/10 00:54:54;;;;;;;23.35;15.55;;;;;;;7.96;76.44;100197.19;4977023;28;20055;-62
2020/12/10 00:57:23;;;;;;;23.98;17.02;;;;;;;7.93;76.45;100206.03;4977076;28;20468;-61
2020/12/10 00:59:49;;;;;;;22.55;16.15;;;;;;;7.93;76.35;100208.66;4976914;28;20054;-61
2020/12/10 01:02:15;;;;;;;23.67;16.27;;;;;;;7.91;76.18;100207.91;4976526;28;20129;-60
2020/12/10 01:04:42;;;;;;;18.92;13.65;;;;;;;7.89;75.95;100214.97;4976610;28;20054;-61
2020/12/10 01:07:08;;;;;;;24.85;15.13;;;;;;;7.87;75.98;100214.22;4976310;28;20054;-61
2020/12/10 01:09:34;;;;;;;22.10;14.35;;;;;;;7.87;75.80;100221.22;4976528;28;20054;-61
2020/12/10 01:12:06;;;;;;;21.77;14.02;;;;;;;7.84;75.57;100222.22;4976137;28;20051;-60
2020/12/10 01:14:32;;;;;;;18.67;12.98;;;;;;;7.81;75.32;100223.25;4976043;28;20055;-60
2020/12/10 01:17:00;;;;;;;16.83;12.20;;;;;;;7.81;75.56;100217.19;4973838;28;20078;-60
2020/12/10 01:19:26;;;;;;;18.13;13.27;;;;;;;7.80;75.44;100216.31;4966734;28;20047;-61
2020/12/10 01:21:52;;;;;;;19.83;13.07;;;;;;;7.80;75.12;100212.88;4959669;28;20043;-60
2020/12/10 01:24:18;;;;;;;16.05;11.85;;;;;;;7.77;74.98;100215.63;4958706;28;20507;-61
2020/12/10 01:26:45;;;;;;;14.27;10.00;;;;;;;7.76;75.16;100220.03;4956789;28;20484;-62
2020/12/10 01:29:11;;;;;;;13.38;9.60;;;;;;;7.75;75.03;100228.78;4956619;28;20055;-64
2020/12/10 01:31:37;;;;;;;14.07;10.68;;;;;;;7.73;74.79;100229.78;4956702;28;20051;-61
2020/12/10 01:34:03;;;;;;;14.93;11.30;;;;;;;7.74;74.87;100226.25;4956515;28;20047;-60
2020/12/10 01:36:31;;;;;;;13.32;10.27;;;;;;;7.72;74.72;100221.13;4956517;28;20054;-60
2020/12/10 01:38:58;;;;;;;15.35;11.00;;;;;;;7.71;74.71;100221.19;4956660;28;20047;-60
2020/12/10 01:41:33;;;;;;;13.95;11.18;;;;;;;7.70;74.68;100229.97;4956482;28;20500;-60
2020/12/10 01:44:12;;;;;;;15.68;10.73;;;;;;;7.70;74.96;100236.03;4960084;28;20133;-62
2020/12/10 01:46:42;;;;;;;15.52;11.68;;;;;;;7.71;74.92;100237.72;4975110;28;20043;-62
2020/12/10 01:49:09;;;;;;;14.32;10.50;;;;;;;7.71;74.98;100234.25;4965082;28;20086;-61
2020/12/10 01:51:36;;;;;;;13.60;9.70;;;;;;;7.70;75.01;100235.19;4975929;28;20411;-62
2020/12/10 01:54:29;;;;;;;12.27;9.23;;;;;;;7.69;74.85;100231.72;4974384;28;20046;-61
2020/12/10 01:56:56;;;;;;;13.73;9.75;;;;;;;7.67;74.80;100231.81;4959353;28;20538;-61
2020/12/10 01:59:23;;;;;;;15.95;10.93;;;;;;;7.68;75.01;100227.41;4956771;28;20080;-61
2020/12/10 02:01:50;;;;;;;14.80;10.93;;;;;;;7.68;74.84;100230.88;4956798;28;20079;-62
2020/12/10 02:04:26;;;;;;;12.48;10.10;;;;;;;7.67;74.63;100231.81;4966118;28;20046;-64
2020/12/10 02:06:53;;;;;;;13.15;10.40;;;;;;;7.66;74.57;100230.13;4975281;28;20106;-60
2020/12/10 02:09:19;;;;;;;13.68;9.90;;;;;;;7.65;74.46;100220.59;4975324;28;20051;-62
2020/12/10 02:11:48;;;;;;;13.07;9.77;;;;;;;7.68;74.79;100232.63;4975148;28;20043;-61
2020/12/10 02:14:17;;;;;;;11.90;9.05;;;;;;;7.67;74.65;100228.38;4975345;28;20482;-61
2020/12/10 02:16:43;;;;;;;13.38;9.45;;;;;;;7.66;74.62;100231.91;4975648;28;20135;-60
2020/12/10 02:19:10;;;;;;;16.70;10.60;;;;;;;7.67;74.72;100233.59;4974970;28;20046;-58
2020/12/10 02:21:37;;;;;;;14.88;10.65;;;;;;;7.66;74.95;100232.72;4974927;28;20065;-59
2020/12/10 02:24:03;;;;;;;13.05;10.18;;;;;;;7.66;75.04;100230.13;4975043;28;20495;-62
2020/12/10 02:26:29;;;;;;;13.48;10.30;;;;;;;7.67;74.89;100230.97;4974564;28;20411;-61
2020/12/10 02:29:00;;;;;;;12.57;9.88;;;;;;;7.65;74.90;100233.66;4975213;28;20126;-61
2020/12/10 02:31:31;;;;;;;12.75;9.82;;;;;;;7.64;74.65;100223.28;4975156;28;20059;-61
2020/12/10 02:34:04;;;;;;;13.80;10.30;;;;;;;7.63;74.55;100226.81;4975391;28;20399;-61
2020/12/10 02:36:33;;;;;;;13.63;10.55;;;;;;;7.61;74.81;100218.25;4975245;28;20125;-62
2020/12/10 02:39:05;;;;;;;13.30;10.20;;;;;;;7.63;74.77;100213.75;4974973;28;20514;-61
2020/12/10 02:41:31;;;;;;;16.85;12.27;;;;;;;7.61;74.90;100206.00;4975093;28;20047;-62
2020/12/10 02:44:03;;;;;;;19.17;14.57;;;;;;;7.62;75.28;100201.66;4974544;28;20130;-60
2020/12/10 02:46:29;;;;;;;20.00;13.90;;;;;;;7.63;75.44;100204.19;4974710;28;20073;-60
2020/12/10 02:48:56;;;;;;;19.05;14.18;;;;;;;7.64;75.37;100203.25;4974545;28;20053;-60
2020/12/10 02:51:22;;;;;;;20.77;14.40;;;;;;;7.65;75.46;100202.31;4974405;28;20055;-60
2020/12/10 02:53:48;;;;;;;20.60;14.40;;;;;;;7.65;75.68;100194.47;4974239;28;20396;-61
2020/12/10 02:56:15;;;;;;;22.10;14.02;;;;;;;7.66;75.81;100185.72;4974076;28;20058;-60
2020/12/10 02:58:47;;;;;;;20.48;13.88;;;;;;;7.67;75.80;100192.63;4974357;28;20047;-60
2020/12/10 03:01:22;;;;;;;23.20;15.10;;;;;;;7.68;76.05;100191.72;4973835;28;20057;-60
2020/12/10 03:03:57;;;;;;;20.60;14.48;;;;;;;7.70;76.06;100193.41;4973141;28;20059;-59
2020/12/10 03:06:23;;;;;;;21.77;14.20;;;;;;;7.71;76.10;100182.00;4974105;28;20046;-60
2020/12/10 03:08:50;;;;;;;20.35;13.75;;;;;;;7.71;76.53;100188.09;4974075;28;20499;-60
2020/12/10 03:11:17;;;;;;;18.48;13.25;;;;;;;7.73;76.39;100188.84;4972814;28;20380;-60
2020/12/10 03:13:43;;;;;;;21.00;14.35;;;;;;;7.73;76.48;100191.44;4973011;28;20554;-60
2020/12/10 03:16:09;;;;;;;19.15;13.70;;;;;;;7.72;76.69;100188.94;4973949;28;20121;-59
2020/12/10 03:18:35;;;;;;;20.00;13.75;;;;;;;7.72;76.40;100196.75;4974057;28;20051;-60
2020/12/10 03:21:03;;;;;;;24.40;14.05;;;;;;;7.73;76.50;100190.63;4973886;28;20047;-60
2020/12/10 03:23:29;;;;;;;20.77;13.20;;;;;;;7.73;76.58;100190.63;4973970;28;20093;-60
2020/12/10 03:25:55;;;;;;;18.77;13.50;;;;;;;7.73;76.70;100185.41;4973775;28;20511;-60
2020/12/10 03:28:21;;;;;;;18.73;13.18;;;;;;;7.74;76.77;100192.31;4973940;28;20503;-59
2020/12/10 03:30:47;;;;;;;17.05;12.82;;;;;;;7.73;76.72;100188.00;4973865;28;20051;-60
2020/12/10 03:33:15;;;;;;;18.98;12.55;;;;;;;7.72;76.78;100178.47;4973597;28;20058;-60
2020/12/10 03:35:41;;;;;;;17.70;12.43;;;;;;;7.74;76.79;100192.31;4973784;28;20078;-60
2020/12/10 03:38:07;;;;;;;15.07;11.35;;;;;;;7.73;76.96;100185.41;4972774;28;20054;-60
2020/12/10 03:40:33;;;;;;;16.48;12.07;;;;;;;7.73;76.78;100183.63;4973751;28;20047;-60
2020/12/10 03:42:59;;;;;;;17.08;12.82;;;;;;;7.73;77.05;100177.56;4973616;28;20054;-59
2020/12/10 03:45:26;;;;;;;17.85;12.45;;;;;;;7.74;77.07;100179.25;4973816;28;20094;-60
2020/12/10 03:47:52;;;;;;;18.20;12.60;;;;;;;7.73;76.86;100177.56;4973610;28;20047;-60
2020/12/10 03:50:18;;;;;;;17.25;12.20;;;;;;;7.73;76.94;100175.78;4973464;28;20109;-60
2020/12/10 03:52:46;;;;;;;15.95;12.10;;;;;;;7.74;76.98;100166.19;4973502;28;20054;-59
2020/12/10 03:55:12;;;;;;;17.73;12.48;;;;;;;7.75;77.07;100173.09;4973814;28;20051;-59
2020/12/10 03:57:38;;;;;;;17.52;12.43;;;;;;;7.75;77.09;100179.16;4973510;28;20482;-60
2020/12/10 04:00:04;;;;;;;19.30;12.63;;;;;;;7.74;77.14;100174.03;4973402;28;20544;-60
2020/12/10 04:02:30;;;;;;;16.10;12.02;;;;;;;7.73;76.96;100172.34;4971379;28;20050;-59
2020/12/10 04:04:56;;;;;;;15.85;11.52;;;;;;;7.73;76.95;100182.78;4970036;28;20113;-60
2020/12/10 04:07:23;;;;;;;18.23;13.73;;;;;;;7.73;77.20;100191.44;4970464;28;20466;-61
2020/12/10 04:09:49;;;;;;;16.13;11.63;;;;;;;7.72;76.96;100181.94;4970174;28;20051;-61
2020/12/10 04:12:15;;;;;;;15.63;11.90;;;;;;;7.73;76.93;100188.00;4969927;28;20105;-59
2020/12/10 04:14:41;;;;;;;18.05;12.48;;;;;;;7.73;77.16;100181.00;4970251;28;20105;-58
2020/12/10 04:17:07;;;;;;;15.88;12.18;;;;;;;7.73;77.11;100174.94;4970261;28;20507;-59
2020/12/10 04:19:34;;;;;;;17.42;12.50;;;;;;;7.72;77.17;100171.50;4970133;28;20081;-58
2020/12/10 04:22:00;;;;;;;18.00;12.38;;;;;;;7.73;77.01;100182.78;4970132;28;20121;-60
2020/12/10 04:24:26;;;;;;;16.85;12.70;;;;;;;7.74;77.25;100181.88;4969816;28;20536;-60
2020/12/10 04:26:54;;;;;;;18.60;13.18;;;;;;;7.73;77.21;100175.78;4969913;28;20137;-60
2020/12/10 04:29:20;;;;;;;17.00;12.73;;;;;;;7.74;77.09;100174.03;4970190;28;20134;-60
2020/12/10 04:31:47;;;;;;;15.60;11.07;;;;;;;7.73;77.40;100178.38;4970045;28;20048;-60
2020/12/10 04:34:13;;;;;;;17.80;11.63;;;;;;;7.72;77.38;100174.13;4969839;28;20050;-60
2020/12/10 04:36:40;;;;;;;15.68;11.43;;;;;;;7.74;77.37;100174.84;4970073;28;20054;-60
2020/12/10 04:39:06;;;;;;;16.80;11.73;;;;;;;7.74;77.51;100172.25;4969823;28;20047;-60
2020/12/10 04:41:35;;;;;;;16.52;11.05;;;;;;;7.73;77.33;100157.50;4970109;28;20050;-60
2020/12/10 04:44:03;;;;;;;16.35;11.20;;;;;;;7.73;77.55;100165.34;4969933;28;20042;-60
2020/12/10 04:46:30;;;;;;;14.63;11.70;;;;;;;7.74;77.48;100163.59;4969900;28;20109;-61
2020/12/10 04:48:57;;;;;;;14.50;11.43;;;;;;;7.73;77.47;100160.09;4971459;28;20137;-60
2020/12/10 04:51:24;;;;;;;15.35;10.77;;;;;;;7.73;77.37;100161.88;4973363;28;20054;-60
2020/12/10 04:53:51;;;;;;;15.38;10.85;;;;;;;7.72;77.22;100152.38;4972169;28;20392;-60
2020/12/10 04:56:17;;;;;;;16.08;11.43;;;;;;;7.71;77.33;100154.16;4973010;28;20082;-60
2020/12/10 04:58:44;;;;;;;14.48;10.20;;;;;;;7.70;77.46;100155.06;4973380;28;20458;-60
2020/12/10 05:01:14;;;;;;;15.80;11.25;;;;;;;7.70;77.55;100149.00;4972003;28;20043;-61
2020/12/10 05:03:44;;;;;;;14.80;11.20;;;;;;;7.67;77.23;100148.25;4973122;28;20503;-61
2020/12/10 05:06:13;;;;;;;15.32;10.80;;;;;;;7.67;77.32;100163.06;4973295;28;20043;-58
2020/12/10 05:08:40;;;;;;;14.10;11.35;;;;;;;7.65;77.00;100162.31;4973011;28;20105;-59
2020/12/10 05:11:08;;;;;;;14.13;11.35;;;;;;;7.63;77.19;100157.16;4972756;28;20484;-59
2020/12/10 05:13:37;;;;;;;15.07;10.75;;;;;;;7.61;76.99;100158.19;4971807;28;20059;-59
2020/12/10 05:16:04;;;;;;;13.80;10.25;;;;;;;7.59;77.34;100158.28;4973156;28;20105;-58
2020/12/10 05:18:30;;;;;;;15.30;10.75;;;;;;;7.57;76.90;100159.25;4973104;28;20058;-59
2020/12/10 05:20:58;;;;;;;12.10;9.50;;;;;;;7.54;76.59;100160.25;4973011;28;20055;-61
2020/12/10 05:23:30;;;;;;;13.65;9.48;;;;;;;7.53;76.52;100158.59;4971833;28;20145;-61
2020/12/10 05:25:56;;;;;;;12.15;9.40;;;;;;;7.51;76.61;100153.44;4972666;28;20400;-61
2020/12/10 05:28:25;;;;;;;13.25;9.55;;;;;;;7.50;76.30;100157.00;4971524;28;20050;-60
2020/12/10 05:31:09;;;;;;;14.00;9.60;;;;;;;7.49;76.43;100160.53;4972361;28;20125;-60
2020/12/10 05:33:36;;;;;;;13.65;10.02;;;;;;;7.47;76.34;100161.53;4972732;28;20050;-60
2020/12/10 05:36:10;;;;;;;13.35;10.00;;;;;;;7.44;76.01;100170.38;4971424;28;20078;-60
2020/12/10 05:38:52;;;;;;;16.80;9.57;;;;;;;7.41;75.67;100170.50;4972665;28;20047;-58
2020/12/10 05:41:20;;;;;;;11.77;9.43;;;;;;;7.37;75.37;100165.56;4972384;28;20050;-58
2020/12/10 05:43:47;;;;;;;13.93;10.77;;;;;;;7.33;75.23;100159.66;4972466;28;20050;-59
2020/12/10 05:46:18;;;;;;;13.30;10.25;;;;;;;7.33;75.18;100164.88;4972207;28;20055;-60
2020/12/10 05:48:45;;;;;;;13.38;9.73;;;;;;;7.30;74.84;100163.25;4972216;28;20483;-60
2020/12/10 05:51:18;;;;;;;13.48;9.90;;;;;;;7.29;75.02;100160.75;4970263;28;20058;-60
2020/12/10 05:53:45;;;;;;;13.63;10.27;;;;;;;7.27;74.61;100165.19;4971115;28;20197;-60
2020/12/10 05:56:13;;;;;;;14.23;10.10;;;;;;;7.26;74.56;100163.50;4965472;28;20059;-60
2020/12/10 05:59:00;;;;;;;15.70;10.35;;;;;;;7.25;74.76;100164.41;4953071;28;20058;-59
2020/12/10 06:01:33;;;;;;;;;;;;;;;7.23;74.45;100161.88;4952312;28;20078;-59
2020/12/10 06:04:03;;;;;;;13.25;9.18;;;;;;;7.21;74.13;100161.13;4968358;28;19926;-59
2020/12/10 06:06:31;;;;;;;12.75;8.73;;;;;;;7.26;74.50;100164.34;4966377;28;20051;-64
2020/12/10 06:09:02;;;;;;;14.70;9.18;;;;;;;7.26;73.91;100163.50;4967444;28;20043;-64
2020/12/10 06:11:31;;;;;;;11.38;9.38;;;;;;;7.24;74.28;100165.31;4952701;28;20047;-64
2020/12/10 06:14:06;;;;;;;12.15;9.00;;;;;;;7.22;74.07;100173.25;4956228;28;20078;-64
2020/12/10 06:16:34;;;;;;;13.57;9.75;;;;;;;7.20;73.89;100167.28;4972172;28;20106;-66
2020/12/10 06:19:04;;;;;;;11.35;8.65;;;;;;;7.20;73.54;100172.50;4971983;28;20136;-70
2020/12/10 06:21:43;;;;;;;12.93;9.05;;;;;;;7.17;73.56;100181.31;4971921;28;20081;-69
2020/12/10 06:24:29;;;;;;;10.68;7.68;;;;;;;7.14;73.50;100180.63;4971544;28;20046;-66
2020/12/10 06:26:57;;;;;;;10.32;7.68;;;;;;;7.10;73.47;100177.34;4971264;28;20062;-65
2020/12/10 06:29:30;;;;;;;10.38;7.78;;;;;;;7.10;73.48;100169.50;4971556;28;20117;-62
2020/12/10 06:32:01;;;;;;;14.05;9.85;;;;;;;7.06;73.44;100170.59;4970721;28;20050;-65
2020/12/10 06:34:38;;;;;;;13.10;8.75;;;;;;;7.06;73.33;100172.34;4971284;28;20513;-70
2020/12/10 06:37:21;;;;;;;12.07;8.48;;;;;;;7.04;73.13;100172.44;4952282;28;20048;-65
2020/12/10 06:39:59;;;;;;;11.48;9.00;;;;;;;7.01;72.85;100173.44;4952282;28;20495;-72
2020/12/10 06:42:26;;;;;;;11.55;8.70;;;;;;;7.01;72.77;100190.84;4952151;28;20093;-64
2020/12/10 06:44:52;;;;;;;10.70;8.40;;;;;;;6.98;72.86;100184.03;4952007;28;20047;-65
2020/12/10 06:47:19;;;;;;;11.15;8.18;;;;;;;6.98;72.98;100188.38;4950813;29;20047;-67
2020/12/10 06:49:46;;;;;;;12.05;8.68;;;;;;;6.98;72.88;100186.66;4950800;29;20051;-66
2020/12/10 06:52:15;;;;;;;14.50;6.50;;;;;;;7.10;73.04;100202.59;4951774;28;20047;-63
2020/12/10 06:55:10;;;;;;;12.90;5.95;;;;;;;7.84;76.09;100196.09;4951809;28;20110;-63
2020/12/10 06:57:59;;;;;;;13.25;10.07;;;;;;;8.00;77.30;100196.13;4969635;28;20050;-66
2020/12/10 07:00:53;;;;;;;15.02;9.20;;;;;;;7.90;76.82;100210.59;4970542;28;20061;-65
2020/12/10 07:03:27;;;;;;;18.60;11.23;;;;;;;7.75;75.55;100210.50;4969411;28;20121;-64
2020/12/10 07:05:53;;;;;;;25.13;13.73;;;;;;;7.62;75.66;100210.31;4968758;28;20081;-66
2020/12/10 07:08:20;;;;;;;24.33;14.40;;;;;;;7.53;75.85;100218.66;4970359;28;20042;-64
2020/12/10 07:10:49;;;;;;;21.40;13.02;;;;;;;7.45;76.00;100213.81;4967281;28;20396;-67
2020/12/10 07:13:28;;;;;;;19.33;12.38;;;;;;;7.41;75.81;100225.31;4969141;28;20042;-65
2020/12/10 07:15:55;;;;;;;16.65;11.48;;;;;;;7.37;75.99;100225.59;4968484;28;20058;-66
2020/12/10 07:18:21;;;;;;;13.73;10.30;;;;;;;7.32;75.90;100231.88;4968029;28;20427;-66
2020/12/10 07:20:52;;;;;;;12.85;10.70;;;;;;;7.29;75.98;100225.97;4960838;28;20051;-63
2020/12/10 07:23:38;;;;;;;13.40;10.15;;;;;;;7.28;75.93;100232.13;4969477;28;20043;-63
2020/12/10 07:26:05;;;;;;;13.40;10.63;;;;;;;7.28;76.08;100230.34;4969029;28;20566;-65
2020/12/10 07:28:31;;;;;;;14.57;10.50;;;;;;;7.30;75.79;100231.13;4970273;28;20567;-65
2020/12/10 07:30:57;;;;;;;15.50;12.15;;;;;;;7.33;75.86;100233.56;4970182;28;20058;-62
2020/12/10 07:33:27;;;;;;;14.35;11.13;;;;;;;7.36;75.89;100240.38;4969697;28;20129;-64
2020/12/10 07:35:54;;;;;;;13.18;10.98;;;;;;;7.41;75.58;100234.94;4969865;28;20047;-65
2020/12/10 07:38:20;;;;;;;15.00;11.70;;;;;;;7.44;75.65;100243.47;4969004;28;20051;-66
2020/12/10 07:40:53;;;;;;;15.82;11.88;;;;;;;7.50;76.02;100240.53;4960953;28;20058;-63
2020/12/10 07:43:31;;;;;;;19.45;13.18;;;;;;;7.49;75.70;100241.44;4961881;28;20046;-66
2020/12/10 07:45:57;;;;;;;17.08;12.98;;;;;;;7.49;75.82;100238.84;4969389;28;20089;-66
2020/12/10 07:48:24;;;;;;;17.70;12.23;;;;;;;7.47;75.89;100245.06;4969853;28;20043;-63
2020/12/10 07:50:50;;;;;;;14.57;12.10;;;;;;;7.48;76.14;100255.44;4969614;28;20039;-62
2020/12/10 07:53:16;;;;;;;15.00;11.82;;;;;;;7.48;76.30;100254.59;4967584;28;20557;-66
2020/12/10 07:55:52;;;;;;;20.30;13.27;;;;;;;7.45;76.26;100257.34;4973744;28;20134;-64
2020/12/10 07:58:30;;;;;;;17.15;12.60;;;;;;;7.41;76.64;100251.44;4972368;28;20050;-64
2020/12/10 08:01:01;;;;;;;16.35;12.18;;;;;;;7.34;76.68;100258.75;4966811;28;20038;-65
2020/12/10 08:03:42;;;;;;;17.17;12.38;;;;;;;7.28;76.96;100251.22;4968172;28;20458;-66
2020/12/10 08:06:10;;;;;;;16.40;12.07;;;;;;;7.27;77.20;100253.91;4968441;28;20038;-66
2020/12/10 08:08:44;;;;;;;17.55;12.40;;;;;;;7.28;77.35;100253.81;4969134;28;20451;-65
2020/12/10 08:11:16;;;;;;;17.25;12.57;;;;;;;7.31;77.30;100256.31;4968937;28;20496;-64
2020/12/10 08:13:55;;;;;;;19.45;12.93;;;;;;;7.31;77.63;100258.91;4966958;28;20054;-64
2020/12/10 08:16:21;;;;;;;17.33;13.07;;;;;;;7.29;77.72;100255.53;4967313;28;20064;-70
2020/12/10 08:18:48;;;;;;;29.50;19.98;;;;;;;7.32;77.74;100265.78;4969106;28;20509;-67
2020/12/10 08:21:35;;;;;;;36.95;22.73;;;;;;;7.38;77.75;100269.00;4968376;28;20387;-65
2020/12/10 08:24:03;;;;;;;84.10;47.95;;;;;;;7.41;77.93;100271.47;4975903;28;20042;-64
2020/12/10 08:26:29;;;;;;;56.17;36.85;;;;;;;7.45;77.80;100270.41;4983844;28;20090;-64
2020/12/10 08:28:57;;;;;;;71.53;47.17;;;;;;;7.45;77.87;100271.25;4981803;28;20046;-62
2020/12/10 08:31:25;;;;;;;38.63;26.40;;;;;;;7.47;78.09;100279.84;4976547;28;20115;-62
2020/12/10 08:33:52;;;;;;;27.88;22.10;;;;;;;7.48;77.99;100273.69;4971902;28;20043;-61
2020/12/10 08:36:30;;;;;;;24.90;18.13;;;;;;;7.50;78.03;100273.63;4973237;28;20051;-62
2020/12/10 08:39:01;;;;;;;20.27;14.65;;;;;;;7.50;78.29;100271.88;4973396;28;20057;-64
2020/12/10 08:41:32;;;;;;;26.08;15.77;;;;;;;7.52;78.42;100277.00;4970847;28;20051;-61
2020/12/10 08:44:07;;;;;;;20.80;14.88;;;;;;;7.55;78.22;100271.59;4972809;28;20054;-63
2020/12/10 08:46:37;;;;;;;21.90;16.00;;;;;;;7.56;78.25;100277.69;4973120;28;20055;-62
2020/12/10 08:49:20;;;;;;;22.75;15.90;;;;;;;7.56;78.34;100275.09;4973094;28;20085;-62
2020/12/10 08:51:50;;;;;;;24.63;16.83;;;;;;;7.55;78.69;100274.22;4971501;28;20912;-62
2020/12/10 08:54:17;;;;;;;24.45;16.85;;;;;;;7.54;78.83;100284.75;4971586;28;20390;-62
2020/12/10 08:56:44;;;;;;;23.25;16.42;;;;;;;7.55;78.85;100283.84;4972027;28;20113;-63
2020/12/10 08:59:10;;;;;;;25.23;17.13;;;;;;;7.56;78.68;100283.75;4972680;28;20043;-62
2020/12/10 09:01:38;;;;;;;23.90;16.00;;;;;;;7.58;78.78;100289.75;4972803;28;20101;-64
2020/12/10 09:04:05;;;;;;;22.83;15.88;;;;;;;7.59;78.80;100283.59;4970978;28;20574;-64
2020/12/10 09:06:33;;;;;;;25.42;16.95;;;;;;;7.61;78.79;100283.53;4973263;28;20097;-63
2020/12/10 09:08:59;;;;;;;25.90;17.25;;;;;;;7.65;78.91;100283.25;4972593;28;20051;-63
2020/12/10 09:11:25;;;;;;;24.58;17.38;;;;;;;7.69;78.72;100286.56;4972489;28;20125;-63
2020/12/10 09:13:57;;;;;;;24.02;17.08;;;;;;;7.71;78.96;100289.94;4972031;28;20054;-61
2020/12/10 09:16:25;;;;;;;23.77;16.80;;;;;;;7.73;78.83;100289.88;4972378;28;20462;-64
2020/12/10 09:18:52;;;;;;;24.50;16.75;;;;;;;7.72;79.00;100286.41;4972658;28;20408;-61
2020/12/10 09:21:19;;;;;;;26.77;17.85;;;;;;;7.74;79.00;100287.16;4972290;28;20054;-62
2020/12/10 09:23:45;;;;;;;23.92;16.65;;;;;;;7.77;78.93;100288.78;4971023;28;20602;-62
2020/12/10 09:26:15;;;;;;;24.63;16.92;;;;;;;7.77;78.94;100287.03;4971995;28;20447;-62
2020/12/10 09:28:42;;;;;;;24.33;16.70;;;;;;;7.80;79.09;100296.47;4972535;28;20051;-63
2020/12/10 09:31:10;;;;;;;24.55;16.50;;;;;;;7.81;79.08;100295.53;4972200;28;20446;-62
2020/12/10 09:33:36;;;;;;;25.67;16.92;;;;;;;7.84;78.97;100295.38;4972007;28;20051;-63
2020/12/10 09:36:04;;;;;;;22.95;17.05;;;;;;;7.84;79.01;100293.59;4972240;28;20063;-62
2020/12/10 09:38:30;;;;;;;23.00;16.02;;;;;;;7.87;78.91;100295.19;4970932;28;20534;-65
2020/12/10 09:40:57;;;;;;;22.60;15.93;;;;;;;7.86;78.76;100298.75;4971782;28;20101;-62
2020/12/10 09:43:23;;;;;;;21.90;16.48;;;;;;;7.83;78.93;100297.16;4971175;28;20113;-63
2020/12/10 09:46:04;;;;;;;25.83;18.92;;;;;;;7.81;79.07;100296.38;4972339;28;20057;-64
2020/12/10 09:48:31;;;;;;;31.45;20.45;;;;;;;7.79;79.32;100294.78;4971185;28;20491;-63
2020/12/10 09:51:03;;;;;;;30.98;19.75;;;;;;;7.80;79.38;100299.06;4971456;28;20487;-63
2020/12/10 09:53:55;;;;;;;28.45;19.50;;;;;;;7.81;79.22;100299.00;4971636;28;20507;-66
2020/12/10 09:58:44;;;;;;;35.38;22.63;;;;;;;7.87;79.24;100303.03;4971882;28;20094;-64
2020/12/10 10:01:11;;;;;;;39.55;25.00;;;;;;;7.90;79.36;100295.06;4971357;28;20585;-61
2020/12/10 10:03:40;;;;;;;38.35;24.17;;;;;;;7.95;79.08;100282.59;4971537;28;20502;-61
2020/12/10 10:06:11;;;;;;;40.03;24.60;;;;;;;7.98;78.88;100282.41;4971744;28;20074;-65
2020/12/10 10:08:38;;;;;;;48.20;27.60;;;;;;;8.04;79.13;100286.47;4972190;28;20101;-63
2020/12/10 10:11:05;;;;;;;46.35;26.70;;;;;;;8.10;79.04;100283.53;4969702;28;20059;-62
2020/12/10 10:13:31;;;;;;;44.08;27.42;;;;;;;8.15;78.80;100280.66;4971536;28;20459;-65
2020/12/10 10:15:58;;;;;;;43.03;26.58;;;;;;;8.20;78.76;100277.81;4971124;28;20049;-62
2020/12/10 10:18:24;;;;;;;44.30;27.20;;;;;;;8.22;78.60;100279.41;4971408;28;20133;-64
2020/12/10 10:20:51;;;;;;;42.35;26.00;;;;;;;8.24;78.55;100269.72;4970931;28;20054;-62
2020/12/10 10:23:19;;;;;;;41.42;25.02;;;;;;;8.30;78.51;100272.00;4969975;28;20047;-63
2020/12/10 10:25:45;;;;;;;43.95;28.17;;;;;;;8.36;78.36;100262.97;4970675;28;20047;-61
2020/12/10 10:28:11;;;;;;;40.58;25.35;;;;;;;8.43;78.27;100261.72;4971278;28;20538;-62
2020/12/10 10:30:38;;;;;;;41.72;26.10;;;;;;;8.49;78.22;100263.16;4971291;28;20042;-63
2020/12/10 10:33:23;;;;;;;40.30;25.05;;;;;;;8.49;78.12;100268.41;4971040;28;20054;-64
2020/12/10 10:36:20;;;;;;;45.72;26.73;;;;;;;8.47;77.91;100265.03;4970179;28;20050;-64
2020/12/10 10:38:47;;;;;;;53.10;31.63;;;;;;;8.42;78.01;100262.63;4970970;28;20058;-65
2020/12/10 10:41:13;;;;;;;47.13;28.35;;;;;;;8.40;77.90;100259.25;4970723;28;20443;-66
2020/12/10 10:43:40;;;;;;;40.35;26.30;;;;;;;8.40;77.69;100261.03;4967320;28;20050;-64
2020/12/10 10:46:06;;;;;;;47.65;30.55;;;;;;;8.40;77.76;100259.25;4977953;28;20047;-64
2020/12/10 10:48:32;;;;;;;44.45;26.48;;;;;;;8.42;77.84;100259.19;4980560;28;20069;-64
2020/12/10 10:50:58;;;;;;;45.45;26.83;;;;;;;8.44;77.68;100263.41;4976579;28;20053;-64
2020/12/10 10:53:25;;;;;;;42.03;25.80;;;;;;;8.44;77.76;100257.31;4978772;28;20050;-64
2020/12/10 10:55:56;;;;;;;41.03;26.05;;;;;;;8.42;77.66;100254.78;4979898;28;20093;-64
2020/12/10 10:58:23;;;;;;;39.63;25.98;;;;;;;8.38;77.65;100262.88;4977480;28;20059;-64
2020/12/10 11:00:49;;;;;;;40.50;25.02;;;;;;;8.33;77.79;100250.91;4979468;28;20087;-64
2020/12/10 11:03:15;;;;;;;40.05;25.33;;;;;;;8.30;77.88;100255.47;4980496;28;20538;-64
2020/12/10 11:05:44;;;;;;;42.40;25.20;;;;;;;8.27;78.03;100261.72;4979217;28;20499;-65
2020/12/10 11:08:10;;;;;;;37.88;24.13;;;;;;;8.25;78.04;100253.13;4970457;28;20051;-64
2020/12/10 11:10:37;;;;;;;38.88;24.45;;;;;;;8.24;78.27;100264.50;4969226;28;20043;-64
2020/12/10 11:13:05;;;;;;;49.83;28.23;;;;;;;8.24;78.35;100258.41;4968289;28;20121;-64
2020/12/10 11:15:51;;;;;;;41.38;24.20;;;;;;;8.20;78.14;100251.66;4968962;28;20452;-65
2020/12/10 11:18:17;;;;;;;47.95;30.85;;;;;;;8.19;78.20;100256.06;4969517;28;20130;-64
2020/12/10 11:20:44;;;;;;;46.97;30.70;;;;;;;8.17;78.21;100252.69;4969908;28;20055;-64
2020/12/10 11:23:13;;;;;;;48.10;28.88;;;;;;;8.14;78.10;100253.69;4969844;28;20495;-65
2020/12/10 11:26:01;;;;;;;47.42;29.23;;;;;;;8.13;78.10;100248.56;4972741;28;20047;-67
2020/12/10 11:28:28;;;;;;;50.33;30.55;;;;;;;8.12;78.13;100239.84;4970096;28;20043;-63
2020/12/10 11:30:56;;;;;;;41.67;25.67;;;;;;;8.12;78.33;100239.84;4969631;28;20180;-65